sensor_id;sensor_type;location;lat;lon;timestamp;P1;durP1;ratioP1;P2;durP2;ratioP2
73682;SDS011;72538;48.146;11.740;2023-10-19T00:00:48;28.70;;;23.63;;
73682;SDS011;72538;48.146;11.740;2023-10-19T00:03:20;29.50;;;25.73;;
73682;SDS011;72538;48.146;11.740;2023-10-19T00:05:44;29.03;;;24.50;;
73682;SDS011;72538;48.146;11.740;2023-10-19T00:08:11;30.13;;;24.60;;
73682;SDS011;72538;48.146;11.740;2023-10-19T00:10:40;29.40;;;23.77;;
73682;SDS011;72538;48.146;11.740;2023-10-19T00:13:11;28.03;;;24.77;;
73682;SDS011;72538;48.146;11.740;2023-10-19T00:15:37;27.10;;;24.23;;
73682;SDS011;72538;48.146;11.740;2023-10-19T00:18:06;28.03;;;24.90;;
73682;SDS011;72538;48.146;11.740;2023-10-19T00:20:34;29.00;;;24.03;;
73682;SDS011;72538;48.146;11.740;2023-10-19T00:23:08;32.47;;;27.57;;
73682;SDS011;72538;48.146;11.740;2023-10-19T00:25:35;34.27;;;27.80;;
73682;SDS011;72538;48.146;11.740;2023-10-19T00:28:01;31.00;;;27.00;;
73682;SDS011;72538;48.146;11.740;2023-10-19T00:30:28;29.17;;;24.97;;
73682;SDS011;72538;48.146;11.740;2023-10-19T00:32:56;32.43;;;26.07;;
73682;SDS011;72538;48.146;11.740;2023-10-19T00:35:22;29.17;;;24.20;;
73682;SDS011;72538;48.146;11.740;2023-10-19T00:37:56;32.23;;;25.77;;
73682;SDS011;72538;48.146;11.740;2023-10-19T00:40:23;32.27;;;26.00;;
73682;SDS011;72538;48.146;11.740;2023-10-19T00:42:51;32.23;;;26.50;;
73682;SDS011;72538;48.146;11.740;2023-10-19T00:45:18;30.07;;;26.47;;
73682;SDS011;72538;48.146;11.740;2023-10-19T00:47:46;30.63;;;27.23;;
73682;SDS011;72538;48.146;11.740;2023-10-19T00:50:13;34.20;;;27.90;;
73682;SDS011;72538;48.146;11.740;2023-10-19T00:52:43;33.37;;;26.57;;
73682;SDS011;72538;48.146;11.740;2023-10-19T00:55:10;28.97;;;25.07;;
73682;SDS011;72538;48.146;11.740;2023-10-19T00:57:38;31.40;;;26.13;;
73682;SDS011;72538;48.146;11.740;2023-10-19T01:00:07;30.67;;;25.90;;
73682;SDS011;72538;48.146;11.740;2023-10-19T01:02:40;29.90;;;25.50;;
73682;SDS011;72538;48.146;11.740;2023-10-19T01:05:10;31.20;;;24.73;;
73682;SDS011;72538;48.146;11.740;2023-10-19T01:07:38;30.87;;;25.97;;
73682;SDS011;72538;48.146;11.740;2023-10-19T01:10:06;28.87;;;25.13;;
73682;SDS011;72538;48.146;11.740;2023-10-19T01:12:33;29.70;;;24.57;;
73682;SDS011;72538;48.146;11.740;2023-10-19T01:17:46;27.37;;;24.30;;
73682;SDS011;72538;48.146;11.740;2023-10-19T01:20:26;29.07;;;24.90;;
73682;SDS011;72538;48.146;11.740;2023-10-19T01:22:56;27.30;;;24.27;;
73682;SDS011;72538;48.146;11.740;2023-10-19T01:28:18;30.43;;;26.40;;
73682;SDS011;72538;48.146;11.740;2023-10-19T01:30:44;30.07;;;26.33;;
73682;SDS011;72538;48.146;11.740;2023-10-19T01:33:11;31.13;;;26.60;;
73682;SDS011;72538;48.146;11.740;2023-10-19T01:35:41;30.60;;;26.67;;
73682;SDS011;72538;48.146;11.740;2023-10-19T01:38:31;27.60;;;24.53;;
73682;SDS011;72538;48.146;11.740;2023-10-19T01:41:00;28.53;;;25.13;;
73682;SDS011;72538;48.146;11.740;2023-10-19T01:43:27;27.07;;;24.00;;
73682;SDS011;72538;48.146;11.740;2023-10-19T01:46:00;28.20;;;24.93;;
73682;SDS011;72538;48.146;11.740;2023-10-19T01:48:39;26.47;;;23.40;;
73682;SDS011;72538;48.146;11.740;2023-10-19T01:51:06;28.03;;;25.03;;
73682;SDS011;72538;48.146;11.740;2023-10-19T01:53:35;28.03;;;22.80;;
73682;SDS011;72538;48.146;11.740;2023-10-19T01:56:04;26.97;;;23.57;;
73682;SDS011;72538;48.146;11.740;2023-10-19T01:58:31;25.23;;;22.73;;
73682;SDS011;72538;48.146;11.740;2023-10-19T02:00:59;27.27;;;23.77;;
73682;SDS011;72538;48.146;11.740;2023-10-19T02:03:29;25.70;;;22.93;;
73682;SDS011;72538;48.146;11.740;2023-10-19T02:05:58;26.97;;;22.83;;
73682;SDS011;72538;48.146;11.740;2023-10-19T02:08:27;25.13;;;22.17;;
73682;SDS011;72538;48.146;11.740;2023-10-19T02:10:53;26.80;;;23.87;;
73682;SDS011;72538;48.146;11.740;2023-10-19T02:13:19;25.50;;;22.80;;
73682;SDS011;72538;48.146;11.740;2023-10-19T02:15:46;25.63;;;21.90;;
73682;SDS011;72538;48.146;11.740;2023-10-19T02:18:12;26.53;;;22.10;;
73682;SDS011;72538;48.146;11.740;2023-10-19T02:20:38;25.67;;;22.63;;
73682;SDS011;72538;48.146;11.740;2023-10-19T02:23:09;26.20;;;22.30;;
73682;SDS011;72538;48.146;11.740;2023-10-19T02:25:35;24.37;;;21.77;;
73682;SDS011;72538;48.146;11.740;2023-10-19T02:28:04;24.10;;;21.60;;
73682;SDS011;72538;48.146;11.740;2023-10-19T02:30:34;27.37;;;22.20;;
73682;SDS011;72538;48.146;11.740;2023-10-19T02:33:01;25.20;;;22.40;;
73682;SDS011;72538;48.146;11.740;2023-10-19T02:35:28;26.37;;;23.63;;
73682;SDS011;72538;48.146;11.740;2023-10-19T02:37:55;26.20;;;23.40;;
73682;SDS011;72538;48.146;11.740;2023-10-19T02:40:21;24.13;;;21.40;;
73682;SDS011;72538;48.146;11.740;2023-10-19T02:42:49;25.73;;;22.87;;
73682;SDS011;72538;48.146;11.740;2023-10-19T02:45:19;24.20;;;21.80;;
73682;SDS011;72538;48.146;11.740;2023-10-19T02:47:45;23.77;;;21.37;;
73682;SDS011;72538;48.146;11.740;2023-10-19T02:50:12;25.37;;;22.67;;
73682;SDS011;72538;48.146;11.740;2023-10-19T02:52:45;25.50;;;22.70;;
73682;SDS011;72538;48.146;11.740;2023-10-19T02:55:12;25.17;;;22.37;;
73682;SDS011;72538;48.146;11.740;2023-10-19T02:57:38;23.33;;;21.00;;
73682;SDS011;72538;48.146;11.740;2023-10-19T03:00:07;24.70;;;22.03;;
73682;SDS011;72538;48.146;11.740;2023-10-19T03:02:35;24.47;;;22.00;;
73682;SDS011;72538;48.146;11.740;2023-10-19T03:05:02;22.60;;;20.23;;
73682;SDS011;72538;48.146;11.740;2023-10-19T03:07:30;24.23;;;21.63;;
73682;SDS011;72538;48.146;11.740;2023-10-19T03:09:56;24.03;;;21.23;;
73682;SDS011;72538;48.146;11.740;2023-10-19T03:12:22;25.37;;;22.00;;
73682;SDS011;72538;48.146;11.740;2023-10-19T03:14:50;25.03;;;22.47;;
73682;SDS011;72538;48.146;11.740;2023-10-19T03:17:16;28.53;;;22.30;;
73682;SDS011;72538;48.146;11.740;2023-10-19T03:19:41;24.70;;;22.10;;
73682;SDS011;72538;48.146;11.740;2023-10-19T03:22:07;25.27;;;22.57;;
73682;SDS011;72538;48.146;11.740;2023-10-19T03:24:34;24.87;;;21.20;;
73682;SDS011;72538;48.146;11.740;2023-10-19T03:27:06;25.27;;;22.50;;
73682;SDS011;72538;48.146;11.740;2023-10-19T03:29:45;26.83;;;22.73;;
73682;SDS011;72538;48.146;11.740;2023-10-19T03:32:13;28.90;;;24.77;;
73682;SDS011;72538;48.146;11.740;2023-10-19T03:34:41;28.73;;;23.67;;
73682;SDS011;72538;48.146;11.740;2023-10-19T03:37:11;27.73;;;24.03;;
73682;SDS011;72538;48.146;11.740;2023-10-19T03:39:39;25.00;;;21.73;;
73682;SDS011;72538;48.146;11.740;2023-10-19T03:42:06;26.33;;;22.20;;
73682;SDS011;72538;48.146;11.740;2023-10-19T03:44:35;23.80;;;21.23;;
73682;SDS011;72538;48.146;11.740;2023-10-19T03:47:12;23.97;;;21.50;;
73682;SDS011;72538;48.146;11.740;2023-10-19T03:49:38;23.70;;;20.53;;
73682;SDS011;72538;48.146;11.740;2023-10-19T03:52:05;23.97;;;21.47;;
73682;SDS011;72538;48.146;11.740;2023-10-19T03:54:36;22.70;;;20.30;;
73682;SDS011;72538;48.146;11.740;2023-10-19T03:57:06;23.13;;;20.20;;
73682;SDS011;72538;48.146;11.740;2023-10-19T03:59:45;23.43;;;20.80;;
73682;SDS011;72538;48.146;11.740;2023-10-19T04:02:14;23.97;;;21.40;;
73682;SDS011;72538;48.146;11.740;2023-10-19T04:04:44;22.50;;;20.20;;
73682;SDS011;72538;48.146;11.740;2023-10-19T04:07:13;24.50;;;21.13;;
73682;SDS011;72538;48.146;11.740;2023-10-19T04:09:47;26.43;;;21.40;;
73682;SDS011;72538;48.146;11.740;2023-10-19T04:12:34;25.07;;;22.43;;
73682;SDS011;72538;48.146;11.740;2023-10-19T04:15:02;25.47;;;20.70;;
73682;SDS011;72538;48.146;11.740;2023-10-19T04:17:32;25.07;;;20.90;;
73682;SDS011;72538;48.146;11.740;2023-10-19T04:19:59;23.80;;;21.30;;
73682;SDS011;72538;48.146;11.740;2023-10-19T04:22:26;23.23;;;20.43;;
73682;SDS011;72538;48.146;11.740;2023-10-19T04:24:52;21.30;;;18.87;;
73682;SDS011;72538;48.146;11.740;2023-10-19T04:27:19;22.37;;;20.07;;
73682;SDS011;72538;48.146;11.740;2023-10-19T04:29:48;24.03;;;20.00;;
73682;SDS011;72538;48.146;11.740;2023-10-19T04:32:15;21.57;;;18.63;;
73682;SDS011;72538;48.146;11.740;2023-10-19T04:34:43;20.97;;;18.80;;
73682;SDS011;72538;48.146;11.740;2023-10-19T04:37:10;21.13;;;18.40;;
73682;SDS011;72538;48.146;11.740;2023-10-19T04:39:37;21.37;;;17.60;;
73682;SDS011;72538;48.146;11.740;2023-10-19T04:42:03;20.33;;;18.10;;
73682;SDS011;72538;48.146;11.740;2023-10-19T04:44:29;21.27;;;18.90;;
73682;SDS011;72538;48.146;11.740;2023-10-19T04:46:56;21.73;;;19.43;;
73682;SDS011;72538;48.146;11.740;2023-10-19T04:49:22;19.97;;;17.87;;
73682;SDS011;72538;48.146;11.740;2023-10-19T04:51:48;23.00;;;20.33;;
73682;SDS011;72538;48.146;11.740;2023-10-19T04:54:14;22.63;;;20.10;;
73682;SDS011;72538;48.146;11.740;2023-10-19T04:56:39;20.50;;;18.30;;
73682;SDS011;72538;48.146;11.740;2023-10-19T04:59:05;19.70;;;17.70;;
73682;SDS011;72538;48.146;11.740;2023-10-19T05:01:31;22.03;;;17.63;;
73682;SDS011;72538;48.146;11.740;2023-10-19T05:04:00;18.00;;;16.27;;
73682;SDS011;72538;48.146;11.740;2023-10-19T05:06:26;21.80;;;18.53;;
73682;SDS011;72538;48.146;11.740;2023-10-19T05:08:52;18.57;;;16.63;;
73682;SDS011;72538;48.146;11.740;2023-10-19T05:11:18;20.23;;;17.33;;
73682;SDS011;72538;48.146;11.740;2023-10-19T05:13:43;19.23;;;16.97;;
73682;SDS011;72538;48.146;11.740;2023-10-19T05:16:09;17.87;;;16.07;;
73682;SDS011;72538;48.146;11.740;2023-10-19T05:18:35;18.33;;;16.53;;
73682;SDS011;72538;48.146;11.740;2023-10-19T05:21:01;20.03;;;18.03;;
73682;SDS011;72538;48.146;11.740;2023-10-19T05:23:27;18.17;;;16.43;;
73682;SDS011;72538;48.146;11.740;2023-10-19T05:25:54;18.60;;;16.70;;
73682;SDS011;72538;48.146;11.740;2023-10-19T05:28:23;17.20;;;15.50;;
73682;SDS011;72538;48.146;11.740;2023-10-19T05:30:48;17.20;;;15.50;;
73682;SDS011;72538;48.146;11.740;2023-10-19T05:33:15;18.13;;;16.33;;
73682;SDS011;72538;48.146;11.740;2023-10-19T05:35:41;18.83;;;16.93;;
73682;SDS011;72538;48.146;11.740;2023-10-19T05:38:08;18.33;;;16.10;;
73682;SDS011;72538;48.146;11.740;2023-10-19T05:40:34;17.97;;;16.03;;
73682;SDS011;72538;48.146;11.740;2023-10-19T05:43:01;19.33;;;17.33;;
73682;SDS011;72538;48.146;11.740;2023-10-19T05:45:28;17.33;;;14.80;;
73682;SDS011;72538;48.146;11.740;2023-10-19T05:47:57;19.07;;;14.60;;
73682;SDS011;72538;48.146;11.740;2023-10-19T05:50:24;17.23;;;15.50;;
73682;SDS011;72538;48.146;11.740;2023-10-19T05:52:50;19.47;;;17.50;;
73682;SDS011;72538;48.146;11.740;2023-10-19T05:55:17;18.20;;;15.97;;
73682;SDS011;72538;48.146;11.740;2023-10-19T05:57:43;17.90;;;16.00;;
73682;SDS011;72538;48.146;11.740;2023-10-19T06:00:10;17.33;;;15.57;;
73682;SDS011;72538;48.146;11.740;2023-10-19T06:02:42;17.20;;;15.53;;
73682;SDS011;72538;48.146;11.740;2023-10-19T06:05:14;16.30;;;14.70;;
73682;SDS011;72538;48.146;11.740;2023-10-19T06:07:41;16.73;;;14.90;;
73682;SDS011;72538;48.146;11.740;2023-10-19T06:10:10;16.40;;;14.87;;
73682;SDS011;72538;48.146;11.740;2023-10-19T06:12:38;15.30;;;13.80;;
73682;SDS011;72538;48.146;11.740;2023-10-19T06:15:05;17.60;;;15.90;;
73682;SDS011;72538;48.146;11.740;2023-10-19T06:17:32;17.90;;;16.03;;
73682;SDS011;72538;48.146;11.740;2023-10-19T06:20:01;15.63;;;14.03;;
73682;SDS011;72538;48.146;11.740;2023-10-19T06:22:27;16.83;;;15.13;;
73682;SDS011;72538;48.146;11.740;2023-10-19T06:24:53;17.10;;;15.33;;
73682;SDS011;72538;48.146;11.740;2023-10-19T06:27:19;17.03;;;15.33;;
73682;SDS011;72538;48.146;11.740;2023-10-19T06:29:45;15.50;;;13.87;;
73682;SDS011;72538;48.146;11.740;2023-10-19T06:32:11;16.17;;;14.47;;
73682;SDS011;72538;48.146;11.740;2023-10-19T06:34:38;15.73;;;14.03;;
73682;SDS011;72538;48.146;11.740;2023-10-19T06:37:04;16.17;;;13.47;;
73682;SDS011;72538;48.146;11.740;2023-10-19T06:39:31;14.93;;;13.43;;
73682;SDS011;72538;48.146;11.740;2023-10-19T06:41:57;13.83;;;12.33;;
73682;SDS011;72538;48.146;11.740;2023-10-19T06:44:23;13.80;;;12.30;;
73682;SDS011;72538;48.146;11.740;2023-10-19T06:46:49;14.27;;;12.70;;
73682;SDS011;72538;48.146;11.740;2023-10-19T06:49:15;12.80;;;11.43;;
73682;SDS011;72538;48.146;11.740;2023-10-19T06:51:41;13.20;;;11.23;;
73682;SDS011;72538;48.146;11.740;2023-10-19T06:54:06;12.33;;;11.10;;
73682;SDS011;72538;48.146;11.740;2023-10-19T06:56:33;11.50;;;10.40;;
73682;SDS011;72538;48.146;11.740;2023-10-19T06:59:01;12.53;;;11.23;;
73682;SDS011;72538;48.146;11.740;2023-10-19T07:01:27;12.57;;;11.27;;
73682;SDS011;72538;48.146;11.740;2023-10-19T07:03:54;11.70;;;10.60;;
73682;SDS011;72538;48.146;11.740;2023-10-19T07:06:22;11.67;;;10.43;;
73682;SDS011;72538;48.146;11.740;2023-10-19T07:08:47;13.60;;;12.20;;
73682;SDS011;72538;48.146;11.740;2023-10-19T07:11:13;13.30;;;11.93;;
73682;SDS011;72538;48.146;11.740;2023-10-19T07:13:39;12.33;;;11.17;;
73682;SDS011;72538;48.146;11.740;2023-10-19T07:16:05;12.17;;;10.97;;
73682;SDS011;72538;48.146;11.740;2023-10-19T07:18:33;11.17;;;10.17;;
73682;SDS011;72538;48.146;11.740;2023-10-19T07:20:59;10.80;;;9.73;;
73682;SDS011;72538;48.146;11.740;2023-10-19T07:23:28;10.80;;;9.80;;
73682;SDS011;72538;48.146;11.740;2023-10-19T07:25:55;10.47;;;9.57;;
73682;SDS011;72538;48.146;11.740;2023-10-19T07:28:21;13.30;;;10.63;;
73682;SDS011;72538;48.146;11.740;2023-10-19T07:30:50;12.03;;;10.80;;
73682;SDS011;72538;48.146;11.740;2023-10-19T07:33:17;12.47;;;11.30;;
73682;SDS011;72538;48.146;11.740;2023-10-19T07:35:44;11.67;;;9.30;;
73682;SDS011;72538;48.146;11.740;2023-10-19T07:38:15;12.07;;;9.17;;
73682;SDS011;72538;48.146;11.740;2023-10-19T07:40:42;9.83;;;8.90;;
73682;SDS011;72538;48.146;11.740;2023-10-19T07:43:11;8.90;;;7.77;;
73682;SDS011;72538;48.146;11.740;2023-10-19T07:45:37;9.77;;;8.27;;
73682;SDS011;72538;48.146;11.740;2023-10-19T07:48:03;9.33;;;7.20;;
73682;SDS011;72538;48.146;11.740;2023-10-19T07:50:35;9.40;;;8.30;;
73682;SDS011;72538;48.146;11.740;2023-10-19T07:53:03;10.30;;;7.47;;
73682;SDS011;72538;48.146;11.740;2023-10-19T07:55:29;9.73;;;6.70;;
73682;SDS011;72538;48.146;11.740;2023-10-19T07:57:57;8.27;;;7.13;;
73682;SDS011;72538;48.146;11.740;2023-10-19T08:00:25;7.27;;;6.57;;
73682;SDS011;72538;48.146;11.740;2023-10-19T08:02:54;9.10;;;6.97;;
73682;SDS011;72538;48.146;11.740;2023-10-19T08:05:20;8.70;;;6.60;;
73682;SDS011;72538;48.146;11.740;2023-10-19T08:07:46;8.83;;;8.03;;
73682;SDS011;72538;48.146;11.740;2023-10-19T08:10:13;9.83;;;7.93;;
73682;SDS011;72538;48.146;11.740;2023-10-19T08:12:41;7.77;;;6.97;;
73682;SDS011;72538;48.146;11.740;2023-10-19T08:15:08;15.20;;;11.77;;
73682;SDS011;72538;48.146;11.740;2023-10-19T08:17:39;17.57;;;15.43;;
73682;SDS011;72538;48.146;11.740;2023-10-19T08:20:08;16.63;;;13.10;;
73682;SDS011;72538;48.146;11.740;2023-10-19T08:22:37;12.10;;;10.17;;
73682;SDS011;72538;48.146;11.740;2023-10-19T08:25:05;7.67;;;6.40;;
73682;SDS011;72538;48.146;11.740;2023-10-19T08:27:32;6.80;;;6.20;;
73682;SDS011;72538;48.146;11.740;2023-10-19T08:29:58;10.30;;;9.30;;
73682;SDS011;72538;48.146;11.740;2023-10-19T08:32:24;7.10;;;6.50;;
73682;SDS011;72538;48.146;11.740;2023-10-19T08:34:51;12.87;;;11.77;;
73682;SDS011;72538;48.146;11.740;2023-10-19T08:37:16;8.43;;;7.73;;
73682;SDS011;72538;48.146;11.740;2023-10-19T08:39:42;4.73;;;4.33;;
73682;SDS011;72538;48.146;11.740;2023-10-19T08:42:08;6.33;;;5.70;;
73682;SDS011;72538;48.146;11.740;2023-10-19T08:44:35;4.63;;;4.23;;
73682;SDS011;72538;48.146;11.740;2023-10-19T08:47:01;4.63;;;4.20;;
73682;SDS011;72538;48.146;11.740;2023-10-19T08:49:29;4.53;;;4.13;;
73682;SDS011;72538;48.146;11.740;2023-10-19T08:51:55;4.67;;;3.90;;
73682;SDS011;72538;48.146;11.740;2023-10-19T08:54:23;4.13;;;3.73;;
73682;SDS011;72538;48.146;11.740;2023-10-19T08:56:51;7.20;;;4.90;;
73682;SDS011;72538;48.146;11.740;2023-10-19T08:59:17;5.60;;;4.22;;
73682;SDS011;72538;48.146;11.740;2023-10-19T09:01:43;7.95;;;4.92;;
73682;SDS011;72538;48.146;11.740;2023-10-19T09:04:12;5.33;;;4.67;;
73682;SDS011;72538;48.146;11.740;2023-10-19T09:06:42;5.97;;;4.50;;
73682;SDS011;72538;48.146;11.740;2023-10-19T09:09:08;6.20;;;5.20;;
73682;SDS011;72538;48.146;11.740;2023-10-19T09:11:37;5.37;;;4.63;;
73682;SDS011;72538;48.146;11.740;2023-10-19T09:14:03;8.13;;;4.90;;
73682;SDS011;72538;48.146;11.740;2023-10-19T09:16:30;6.17;;;5.07;;
73682;SDS011;72538;48.146;11.740;2023-10-19T09:18:56;5.50;;;4.73;;
73682;SDS011;72538;48.146;11.740;2023-10-19T09:21:22;6.67;;;4.63;;
73682;SDS011;72538;48.146;11.740;2023-10-19T09:23:51;6.20;;;4.77;;
73682;SDS011;72538;48.146;11.740;2023-10-19T09:26:21;6.27;;;4.83;;
73682;SDS011;72538;48.146;11.740;2023-10-19T09:28:51;4.90;;;4.33;;
73682;SDS011;72538;48.146;11.740;2023-10-19T09:31:19;5.37;;;4.73;;
73682;SDS011;72538;48.146;11.740;2023-10-19T09:33:47;6.27;;;4.70;;
73682;SDS011;72538;48.146;11.740;2023-10-19T09:36:18;6.73;;;4.57;;
73682;SDS011;72538;48.146;11.740;2023-10-19T09:38:46;6.63;;;4.87;;
73682;SDS011;72538;48.146;11.740;2023-10-19T09:41:19;6.57;;;4.87;;
73682;SDS011;72538;48.146;11.740;2023-10-19T09:43:49;6.93;;;4.87;;
73682;SDS011;72538;48.146;11.740;2023-10-19T09:46:23;7.03;;;5.43;;
73682;SDS011;72538;48.146;11.740;2023-10-19T09:48:51;6.17;;;5.10;;
73682;SDS011;72538;48.146;11.740;2023-10-19T09:51:17;6.70;;;6.00;;
73682;SDS011;72538;48.146;11.740;2023-10-19T09:53:46;6.70;;;5.23;;
73682;SDS011;72538;48.146;11.740;2023-10-19T09:56:17;6.15;;;5.53;;
73682;SDS011;72538;48.146;11.740;2023-10-19T09:58:54;6.00;;;5.40;;
73682;SDS011;72538;48.146;11.740;2023-10-19T10:01:23;5.77;;;5.23;;
73682;SDS011;72538;48.146;11.740;2023-10-19T10:03:51;6.40;;;5.73;;
73682;SDS011;72538;48.146;11.740;2023-10-19T10:06:28;8.10;;;5.63;;
73682;SDS011;72538;48.146;11.740;2023-10-19T10:08:58;9.20;;;6.10;;
73682;SDS011;72538;48.146;11.740;2023-10-19T10:11:26;6.00;;;5.40;;
73682;SDS011;72538;48.146;11.740;2023-10-19T10:13:57;6.63;;;5.93;;
73682;SDS011;72538;48.146;11.740;2023-10-19T10:16:25;5.67;;;5.17;;
73682;SDS011;72538;48.146;11.740;2023-10-19T10:18:56;5.75;;;5.15;;
73682;SDS011;72538;48.146;11.740;2023-10-19T10:21:27;5.70;;;5.08;;
73682;SDS011;72538;48.146;11.740;2023-10-19T10:23:55;6.92;;;5.80;;
73682;SDS011;72538;48.146;11.740;2023-10-19T10:26:24;8.73;;;5.42;;
73682;SDS011;72538;48.146;11.740;2023-10-19T10:31:49;7.50;;;6.03;;
73682;SDS011;72538;48.146;11.740;2023-10-19T10:37:04;6.30;;;5.28;;
73682;SDS011;72538;48.146;11.740;2023-10-19T10:39:33;6.50;;;5.78;;
73682;SDS011;72538;48.146;11.740;2023-10-19T10:42:04;6.85;;;5.58;;
73682;SDS011;72538;48.146;11.740;2023-10-19T10:44:42;5.42;;;5.03;;
73682;SDS011;72538;48.146;11.740;2023-10-19T10:47:06;6.17;;;5.58;;
73682;SDS011;72538;48.146;11.740;2023-10-19T10:49:34;6.30;;;4.90;;
73682;SDS011;72538;48.146;11.740;2023-10-19T10:52:00;6.15;;;4.75;;
73682;SDS011;72538;48.146;11.740;2023-10-19T10:54:26;5.30;;;4.40;;
73682;SDS011;72538;48.146;11.740;2023-10-19T10:56:52;6.20;;;5.07;;
73682;SDS011;72538;48.146;11.740;2023-10-19T10:59:18;7.75;;;5.35;;
73682;SDS011;72538;48.146;11.740;2023-10-19T11:01:43;6.45;;;5.37;;
73682;SDS011;72538;48.146;11.740;2023-10-19T11:04:10;5.37;;;4.87;;
73682;SDS011;72538;48.146;11.740;2023-10-19T11:06:52;5.42;;;4.97;;
73682;SDS011;72538;48.146;11.740;2023-10-19T11:09:21;5.97;;;4.72;;
73682;SDS011;72538;48.146;11.740;2023-10-19T11:11:47;5.75;;;5.12;;
73682;SDS011;72538;48.146;11.740;2023-10-19T11:14:15;8.30;;;5.83;;
73682;SDS011;72538;48.146;11.740;2023-10-19T11:16:41;9.55;;;5.53;;
73682;SDS011;72538;48.146;11.740;2023-10-19T11:19:08;5.95;;;4.65;;
73682;SDS011;72538;48.146;11.740;2023-10-19T11:21:35;8.48;;;6.03;;
73682;SDS011;72538;48.146;11.740;2023-10-19T11:24:01;10.63;;;5.22;;
73682;SDS011;72538;48.146;11.740;2023-10-19T11:26:29;6.72;;;5.45;;
73682;SDS011;72538;48.146;11.740;2023-10-19T11:29:01;7.22;;;5.25;;
73682;SDS011;72538;48.146;11.740;2023-10-19T11:31:33;6.10;;;5.42;;
73682;SDS011;72538;48.146;11.740;2023-10-19T11:34:00;6.37;;;4.65;;
73682;SDS011;72538;48.146;11.740;2023-10-19T11:36:26;5.15;;;4.70;;
73682;SDS011;72538;48.146;11.740;2023-10-19T11:38:52;8.80;;;5.42;;
73682;SDS011;72538;48.146;11.740;2023-10-19T11:41:18;7.60;;;5.53;;
73682;SDS011;72538;48.146;11.740;2023-10-19T11:43:45;6.40;;;5.50;;
73682;SDS011;72538;48.146;11.740;2023-10-19T11:46:13;7.58;;;5.37;;
73682;SDS011;72538;48.146;11.740;2023-10-19T11:48:41;13.22;;;7.80;;
73682;SDS011;72538;48.146;11.740;2023-10-19T11:51:10;7.47;;;6.35;;
73682;SDS011;72538;48.146;11.740;2023-10-19T11:53:37;6.65;;;5.67;;
73682;SDS011;72538;48.146;11.740;2023-10-19T11:56:05;9.68;;;5.67;;
73682;SDS011;72538;48.146;11.740;2023-10-19T11:58:33;6.83;;;5.37;;
73682;SDS011;72538;48.146;11.740;2023-10-19T12:01:08;5.90;;;5.35;;
73682;SDS011;72538;48.146;11.740;2023-10-19T12:03:36;6.50;;;5.08;;
73682;SDS011;72538;48.146;11.740;2023-10-19T12:06:03;7.53;;;5.67;;
73682;SDS011;72538;48.146;11.740;2023-10-19T12:08:32;6.87;;;5.40;;
73682;SDS011;72538;48.146;11.740;2023-10-19T12:10:59;6.70;;;5.83;;
73682;SDS011;72538;48.146;11.740;2023-10-19T12:13:27;5.65;;;5.15;;
73682;SDS011;72538;48.146;11.740;2023-10-19T12:15:53;7.30;;;5.05;;
73682;SDS011;72538;48.146;11.740;2023-10-19T12:18:23;6.15;;;5.00;;
73682;SDS011;72538;48.146;11.740;2023-10-19T12:20:52;7.72;;;5.05;;
73682;SDS011;72538;48.146;11.740;2023-10-19T12:23:19;6.87;;;5.08;;
73682;SDS011;72538;48.146;11.740;2023-10-19T12:25:47;6.25;;;4.85;;
73682;SDS011;72538;48.146;11.740;2023-10-19T12:28:13;5.58;;;4.92;;
73682;SDS011;72538;48.146;11.740;2023-10-19T12:30:39;8.50;;;4.83;;
73682;SDS011;72538;48.146;11.740;2023-10-19T12:33:06;6.22;;;5.62;;
73682;SDS011;72538;48.146;11.740;2023-10-19T12:35:38;5.95;;;4.60;;
73682;SDS011;72538;48.146;11.740;2023-10-19T12:38:10;8.40;;;6.20;;
73682;SDS011;72538;48.146;11.740;2023-10-19T12:40:45;6.62;;;5.67;;
73682;SDS011;72538;48.146;11.740;2023-10-19T12:43:13;7.15;;;5.78;;
73682;SDS011;72538;48.146;11.740;2023-10-19T12:45:40;6.50;;;5.85;;
73682;SDS011;72538;48.146;11.740;2023-10-19T12:48:06;5.78;;;5.28;;
73682;SDS011;72538;48.146;11.740;2023-10-19T12:50:35;5.60;;;5.10;;
73682;SDS011;72538;48.146;11.740;2023-10-19T12:53:02;4.92;;;4.20;;
73682;SDS011;72538;48.146;11.740;2023-10-19T12:55:28;5.62;;;4.62;;
73682;SDS011;72538;48.146;11.740;2023-10-19T12:57:59;6.20;;;5.12;;
73682;SDS011;72538;48.146;11.740;2023-10-19T13:00:26;5.28;;;4.55;;
73682;SDS011;72538;48.146;11.740;2023-10-19T13:02:54;7.20;;;4.60;;
73682;SDS011;72538;48.146;11.740;2023-10-19T13:05:35;5.35;;;4.10;;
73682;SDS011;72538;48.146;11.740;2023-10-19T13:08:07;3.60;;;3.25;;
73682;SDS011;72538;48.146;11.740;2023-10-19T13:10:31;3.65;;;2.92;;
73682;SDS011;72538;48.146;11.740;2023-10-19T13:13:01;3.37;;;3.08;;
73682;SDS011;72538;48.146;11.740;2023-10-19T13:15:32;3.62;;;3.30;;
73682;SDS011;72538;48.146;11.740;2023-10-19T13:18:00;4.05;;;3.20;;
73682;SDS011;72538;48.146;11.740;2023-10-19T13:20:31;3.67;;;2.60;;
73682;SDS011;72538;48.146;11.740;2023-10-19T13:23:03;3.40;;;2.90;;
73682;SDS011;72538;48.146;11.740;2023-10-19T13:25:34;3.42;;;3.10;;
73682;SDS011;72538;48.146;11.740;2023-10-19T13:28:14;3.27;;;2.92;;
73682;SDS011;72538;48.146;11.740;2023-10-19T13:30:45;3.58;;;2.70;;
73682;SDS011;72538;48.146;11.740;2023-10-19T13:33:09;3.67;;;2.85;;
73682;SDS011;72538;48.146;11.740;2023-10-19T13:35:36;4.95;;;3.15;;
73682;SDS011;72538;48.146;11.740;2023-10-19T13:38:04;3.75;;;3.20;;
73682;SDS011;72538;48.146;11.740;2023-10-19T13:40:31;5.33;;;3.20;;
73682;SDS011;72538;48.146;11.740;2023-10-19T13:42:58;2.95;;;2.65;;
73682;SDS011;72538;48.146;11.740;2023-10-19T13:45:24;3.62;;;2.90;;
73682;SDS011;72538;48.146;11.740;2023-10-19T13:47:50;4.47;;;2.80;;
73682;SDS011;72538;48.146;11.740;2023-10-19T13:50:18;3.47;;;2.80;;
73682;SDS011;72538;48.146;11.740;2023-10-19T13:52:44;4.30;;;3.75;;
73682;SDS011;72538;48.146;11.740;2023-10-19T13:55:09;5.28;;;3.40;;
73682;SDS011;72538;48.146;11.740;2023-10-19T13:57:37;5.37;;;3.47;;
73682;SDS011;72538;48.146;11.740;2023-10-19T14:00:05;5.33;;;4.08;;
73682;SDS011;72538;48.146;11.740;2023-10-19T14:02:33;6.58;;;5.12;;
73682;SDS011;72538;48.146;11.740;2023-10-19T14:04:59;5.10;;;3.67;;
73682;SDS011;72538;48.146;11.740;2023-10-19T14:07:25;5.17;;;4.08;;
73682;SDS011;72538;48.146;11.740;2023-10-19T14:09:51;5.00;;;4.22;;
73682;SDS011;72538;48.146;11.740;2023-10-19T14:12:18;5.12;;;4.62;;
73682;SDS011;72538;48.146;11.740;2023-10-19T14:14:43;5.67;;;4.72;;
73682;SDS011;72538;48.146;11.740;2023-10-19T14:17:09;7.50;;;5.42;;
73682;SDS011;72538;48.146;11.740;2023-10-19T14:19:35;8.90;;;6.37;;
73682;SDS011;72538;48.146;11.740;2023-10-19T14:22:00;22.50;;;17.23;;
73682;SDS011;72538;48.146;11.740;2023-10-19T14:24:28;26.30;;;17.50;;
73682;SDS011;72538;48.146;11.740;2023-10-19T14:26:53;16.67;;;13.70;;
73682;SDS011;72538;48.146;11.740;2023-10-19T14:29:19;13.78;;;11.57;;
73682;SDS011;72538;48.146;11.740;2023-10-19T14:31:45;16.80;;;13.00;;
73682;SDS011;72538;48.146;11.740;2023-10-19T14:34:11;16.57;;;15.07;;
73682;SDS011;72538;48.146;11.740;2023-10-19T14:36:37;16.45;;;14.87;;